Seneimaru — JG5357 — position and weather

sailwx.info

Track history (hours):
 
Tides and Currents Weather Stations Pressure Air Temp Water Temp Dewpoint Dewpoint Depression Visibility Wind Speed Wind Dir Waves Ship Positions

Seneimaru

Last reported at 2016-Dec-08 04:16 UTC. Time now 2016-Dec-08 06:07 UTC.
Position N 35°05' E 139°44'.

Length 72 m; draft 5.9 m.

Type: Cargo ship. MMSI: 431100477.

Date/timePositionNaut miles runAvg speedWind from/ knotsBaromVisibWave heightAir tempDewpointWater temp
2016-Dec-08 04:16N 35°05' E 139°44'1011.6
2016-Dec-08 03:23N 35°15' E 139°46'910.9
2016-Dec-08 02:33N 35°24' E 139°43'6 5.8
2016-Dec-08 01:33N 35°30' E 139°44'1 0.8
2016-Dec-08 00:33N 35°30' E 139°43'0 0.0
2016-Dec-07 23:33N 35°30' E 139°43'0 0.0
2016-Dec-07 22:33N 35°30' E 139°43'0 0.0
2016-Dec-07 21:33N 35°30' E 139°43'0 0.0
2016-Dec-07 20:33N 35°30' E 139°43'0 0.0
2016-Dec-07 19:33N 35°30' E 139°43'0 0.0
2016-Dec-07 18:33N 35°30' E 139°43'0 0.0
2016-Dec-07 17:33N 35°30' E 139°43'0 0.0
2016-Dec-07 16:33N 35°30' E 139°43'0 0.0
2016-Dec-07 15:34N 35°30' E 139°43'0 0.0
2016-Dec-07 14:33N 35°30' E 139°43'0 0.0
2016-Dec-07 13:33N 35°30' E 139°43'0 0.0
2016-Dec-07 12:33N 35°30' E 139°43'0 0.0
2016-Dec-07 11:33N 35°30' E 139°43'0 0.0
2016-Dec-07 10:33N 35°30' E 139°43'0 0.0
2016-Dec-07 09:33N 35°30' E 139°43'0 0.0
2016-Dec-07 08:33N 35°30' E 139°43'0 0.0
2016-Dec-07 07:33N 35°30' E 139°43'0 0.0
2016-Dec-07 06:33N 35°30' E 139°43'0 0.0
2016-Dec-07 05:33N 35°30' E 139°43'0 0.0
2016-Dec-07 04:33N 35°30' E 139°43'0 0.0
2016-Dec-07 03:33N 35°30' E 139°43'0 0.0
2016-Dec-07 02:33N 35°30' E 139°43'3 2.7
2016-Dec-07 01:33N 35°27' E 139°43'4 4.4
2016-Dec-07 00:33N 35°23' E 139°45'0 0.0
2016-Dec-06 23:33N 35°23' E 139°45'0 0.0
2016-Dec-06 22:33N 35°23' E 139°45'3 0.1
2016-Dec-05 06:24N 35°21' E 139°42'910.6
2016-Dec-05 05:33N 35°29' E 139°48'4 3.9
2016-Dec-05 04:33N 35°30' E 139°43'0 0.0
2016-Dec-05 03:33N 35°30' E 139°43'0 0.0
2016-Dec-05 02:33N 35°30' E 139°43'0 0.0
2016-Dec-05 01:33N 35°30' E 139°43'0 0.0
2016-Dec-05 00:33N 35°30' E 139°43'0 0.0
2016-Dec-04 23:33N 35°30' E 139°43'0 0.0
2016-Dec-04 22:33N 35°30' E 139°43'0 0.0
2016-Dec-04 21:33N 35°30' E 139°43'0 0.0
2016-Dec-04 20:33N 35°30' E 139°43'0 0.0
2016-Dec-04 19:33N 35°30' E 139°43'0 0.0
2016-Dec-04 18:33N 35°30' E 139°43'0 0.0
2016-Dec-04 17:33N 35°30' E 139°43'0 0.0
2016-Dec-04 16:33N 35°30' E 139°43'0 0.0
2016-Dec-04 15:33N 35°30' E 139°43'0 0.0
2016-Dec-04 14:33N 35°30' E 139°43'0 0.0
2016-Dec-04 13:33N 35°30' E 139°43'0 0.0
2016-Dec-04 12:33N 35°30' E 139°43'0 0.0
2016-Dec-04 11:33N 35°30' E 139°43'0 0.0
2016-Dec-04 10:33N 35°30' E 139°43'0 0.0
2016-Dec-04 09:33N 35°30' E 139°43'0 0.0
2016-Dec-04 08:33N 35°30' E 139°43'0 0.0
2016-Dec-04 07:33N 35°30' E 139°43'0 0.0
2016-Dec-04 06:33N 35°30' E 139°43'0 0.0
2016-Dec-04 05:33N 35°30' E 139°43'0 0.0
2016-Dec-04 04:33N 35°30' E 139°43'0 0.0
2016-Dec-04 03:33N 35°30' E 139°43'0 0.0
2016-Dec-04 02:33N 35°30' E 139°43'0 0.0
2016-Dec-04 01:33N 35°30' E 139°43'0 0.0
2016-Dec-04 00:33N 35°30' E 139°43'0 0.0
2016-Dec-03 23:33N 35°30' E 139°43'0 0.0
2016-Dec-03 22:33N 35°30' E 139°43'1 1.3
2016-Dec-03 21:33N 35°29' E 139°42'6 5.8
2016-Dec-03 20:33N 35°23' E 139°44'0 0.0
2016-Dec-03 19:32N 35°23' E 139°44'0 0.0
2016-Dec-03 18:32N 35°23' E 139°44'0 0.0
2016-Dec-03 17:32N 35°23' E 139°44'0 0.0
2016-Dec-03 16:32N 35°23' E 139°44'0 0.0
2016-Dec-03 15:26N 35°23' E 139°44'0 0.0
2016-Dec-03 14:32N 35°23' E 139°44'0 0.1
2016-Dec-03 13:33N 35°23' E 139°44'9 8.8
2016-Dec-03 12:33N 35°15' E 139°47'1212.0
2016-Dec-03 11:33N 35°03' E 139°45'6 0.2
2016-Dec-02 01:33N 35°09' E 139°45'1211.4
2016-Dec-02 00:32N 35°21' E 139°42'1010.2
2016-Dec-01 23:32N 35°30' E 139°47'3 3.3
2016-Dec-01 22:33N 35°30' E 139°43'0 0.0
2016-Dec-01 21:33N 35°30' E 139°43'0 0.0
2016-Dec-01 20:33N 35°30' E 139°43'0 0.0
2016-Dec-01 19:33N 35°30' E 139°43'0 0.0
2016-Dec-01 18:33N 35°30' E 139°43'0 0.0
2016-Dec-01 17:33N 35°30' E 139°43'0 0.0
2016-Dec-01 16:33N 35°30' E 139°43'0 0.0
2016-Dec-01 15:33N 35°30' E 139°43'0 0.0
2016-Dec-01 14:33N 35°30' E 139°43'0 0.0
2016-Dec-01 13:33N 35°30' E 139°43'0 0.0
2016-Dec-01 12:33N 35°30' E 139°43'0 0.0
2016-Dec-01 11:33N 35°30' E 139°43'0 0.0
2016-Dec-01 10:33N 35°30' E 139°43'0 0.0
2016-Dec-01 09:33N 35°30' E 139°43'0 0.0
2016-Dec-01 08:33N 35°30' E 139°43'0 0.0
2016-Dec-01 07:33N 35°30' E 139°43'0 0.0
2016-Dec-01 06:33N 35°30' E 139°43'0 0.0
2016-Dec-01 05:33N 35°30' E 139°43'0 0.0
2016-Dec-01 04:33N 35°30' E 139°43'0 0.0
2016-Dec-01 03:33N 35°30' E 139°43'0 0.0
2016-Dec-01 02:33N 35°30' E 139°43'0 0.0
2016-Dec-01 01:33N 35°30' E 139°43'0 0.0
2016-Dec-01 00:33N 35°30' E 139°43'0 0.0
2016-Nov-30 23:33N 35°30' E 139°43'0 0.0
2016-Nov-30 22:33N 35°30' E 139°43'0 0.0
2016-Nov-30 21:33N 35°30' E 139°43'0 0.0
2016-Nov-30 20:33N 35°30' E 139°43'0 0.0
2016-Nov-30 19:33N 35°30' E 139°43'0 0.0
2016-Nov-30 18:33N 35°30' E 139°43'0 0.0
2016-Nov-30 17:33N 35°30' E 139°43'0 0.0
2016-Nov-30 16:33N 35°30' E 139°43'0 0.0
2016-Nov-30 15:33N 35°30' E 139°43'0 0.0
2016-Nov-30 14:33N 35°30' E 139°43'0 0.0
2016-Nov-30 13:33N 35°30' E 139°43'0 0.0
2016-Nov-30 12:33N 35°30' E 139°43'0 0.0
2016-Nov-30 11:33N 35°30' E 139°43'0 0.0
2016-Nov-30 10:33N 35°30' E 139°43'0 0.0
2016-Nov-30 09:33N 35°30' E 139°43'0 0.0
2016-Nov-30 08:33N 35°30' E 139°43'0 0.0
2016-Nov-30 07:33N 35°30' E 139°43'0 0.0
2016-Nov-30 06:33N 35°30' E 139°43'0 0.0
2016-Nov-30 05:33N 35°30' E 139°43'0 0.0
2016-Nov-30 04:33N 35°30' E 139°43'1 1.3
2016-Nov-30 03:33N 35°29' E 139°42'6 6.0
2016-Nov-30 02:33N 35°23' E 139°43'0 0.0
2016-Nov-30 01:33N 35°23' E 139°43'0 0.0
2016-Nov-30 00:33N 35°23' E 139°43'0 0.0
2016-Nov-29 23:32N 35°23' E 139°43'0 0.0
2016-Nov-29 22:33N 35°23' E 139°43'0 0.0
2016-Nov-29 21:33N 35°23' E 139°43'9 9.0
2016-Nov-29 20:32N 35°14' E 139°47'7 0.2
2016-Nov-28 08:33N 35°08' E 139°45'1110.9
2016-Nov-28 07:33N 35°19' E 139°44'1010.3
2016-Nov-28 06:33N 35°29' E 139°47'4 3.8
2016-Nov-28 05:33N 35°30' E 139°43'0 0.0
2016-Nov-28 04:33N 35°30' E 139°43'  
Track history (hours):
 
Tides and Currents Weather Stations Pressure Air Temp Water Temp Dewpoint Dewpoint Depression Visibility Wind Speed Wind Dir Waves Ship Positions

Seneimaru

Last reported at 2016-Dec-08 04:16 UTC. Time now 2016-Dec-08 06:07 UTC.
Position N 35°05' E 139°44'.

Length 72 m; draft 5.9 m.

Type: Cargo ship. MMSI: 431100477.

Date/timePositionNaut miles runAvg speedWind from/ knotsBaromVisibWave heightAir tempDewpointWater temp
2016-Dec-08 04:16N 35°05' E 139°44'1011.6
2016-Dec-08 03:23N 35°15' E 139°46'910.9
2016-Dec-08 02:33N 35°24' E 139°43'6 5.8
2016-Dec-08 01:33N 35°30' E 139°44'1 0.8
2016-Dec-08 00:33N 35°30' E 139°43'0 0.0
2016-Dec-07 23:33N 35°30' E 139°43'0 0.0
2016-Dec-07 22:33N 35°30' E 139°43'0 0.0
2016-Dec-07 21:33N 35°30' E 139°43'0 0.0
2016-Dec-07 20:33N 35°30' E 139°43'0 0.0
2016-Dec-07 19:33N 35°30' E 139°43'0 0.0
2016-Dec-07 18:33N 35°30' E 139°43'0 0.0
2016-Dec-07 17:33N 35°30' E 139°43'0 0.0
2016-Dec-07 16:33N 35°30' E 139°43'0 0.0
2016-Dec-07 15:34N 35°30' E 139°43'0 0.0
2016-Dec-07 14:33N 35°30' E 139°43'0 0.0
2016-Dec-07 13:33N 35°30' E 139°43'0 0.0
2016-Dec-07 12:33N 35°30' E 139°43'0 0.0
2016-Dec-07 11:33N 35°30' E 139°43'0 0.0
2016-Dec-07 10:33N 35°30' E 139°43'0 0.0
2016-Dec-07 09:33N 35°30' E 139°43'0 0.0
2016-Dec-07 08:33N 35°30' E 139°43'0 0.0
2016-Dec-07 07:33N 35°30' E 139°43'0 0.0
2016-Dec-07 06:33N 35°30' E 139°43'0 0.0
2016-Dec-07 05:33N 35°30' E 139°43'0 0.0
2016-Dec-07 04:33N 35°30' E 139°43'0 0.0
2016-Dec-07 03:33N 35°30' E 139°43'0 0.0
2016-Dec-07 02:33N 35°30' E 139°43'3 2.7
2016-Dec-07 01:33N 35°27' E 139°43'4 4.4
2016-Dec-07 00:33N 35°23' E 139°45'0 0.0
2016-Dec-06 23:33N 35°23' E 139°45'0 0.0
2016-Dec-06 22:33N 35°23' E 139°45'3 0.1
2016-Dec-05 06:24N 35°21' E 139°42'910.6
2016-Dec-05 05:33N 35°29' E 139°48'4 3.9
2016-Dec-05 04:33N 35°30' E 139°43'0 0.0
2016-Dec-05 03:33N 35°30' E 139°43'0 0.0
2016-Dec-05 02:33N 35°30' E 139°43'0 0.0
2016-Dec-05 01:33N 35°30' E 139°43'0 0.0
2016-Dec-05 00:33N 35°30' E 139°43'0 0.0
2016-Dec-04 23:33N 35°30' E 139°43'0 0.0
2016-Dec-04 22:33N 35°30' E 139°43'0 0.0
2016-Dec-04 21:33N 35°30' E 139°43'0 0.0
2016-Dec-04 20:33N 35°30' E 139°43'0 0.0
2016-Dec-04 19:33N 35°30' E 139°43'0 0.0
2016-Dec-04 18:33N 35°30' E 139°43'0 0.0
2016-Dec-04 17:33N 35°30' E 139°43'0 0.0
2016-Dec-04 16:33N 35°30' E 139°43'0 0.0
2016-Dec-04 15:33N 35°30' E 139°43'0 0.0
2016-Dec-04 14:33N 35°30' E 139°43'0 0.0
2016-Dec-04 13:33N 35°30' E 139°43'0 0.0
2016-Dec-04 12:33N 35°30' E 139°43'0 0.0
2016-Dec-04 11:33N 35°30' E 139°43'0 0.0
2016-Dec-04 10:33N 35°30' E 139°43'0 0.0
2016-Dec-04 09:33N 35°30' E 139°43'0 0.0
2016-Dec-04 08:33N 35°30' E 139°43'0 0.0
2016-Dec-04 07:33N 35°30' E 139°43'0 0.0
2016-Dec-04 06:33N 35°30' E 139°43'0 0.0
2016-Dec-04 05:33N 35°30' E 139°43'0 0.0
2016-Dec-04 04:33N 35°30' E 139°43'0 0.0
2016-Dec-04 03:33N 35°30' E 139°43'0 0.0
2016-Dec-04 02:33N 35°30' E 139°43'0 0.0
2016-Dec-04 01:33N 35°30' E 139°43'0 0.0
2016-Dec-04 00:33N 35°30' E 139°43'0 0.0
2016-Dec-03 23:33N 35°30' E 139°43'0 0.0
2016-Dec-03 22:33N 35°30' E 139°43'1 1.3
2016-Dec-03 21:33N 35°29' E 139°42'6 5.8
2016-Dec-03 20:33N 35°23' E 139°44'0 0.0
2016-Dec-03 19:32N 35°23' E 139°44'0 0.0
2016-Dec-03 18:32N 35°23' E 139°44'0 0.0
2016-Dec-03 17:32N 35°23' E 139°44'0 0.0
2016-Dec-03 16:32N 35°23' E 139°44'0 0.0
2016-Dec-03 15:26N 35°23' E 139°44'0 0.0
2016-Dec-03 14:32N 35°23' E 139°44'0 0.1
2016-Dec-03 13:33N 35°23' E 139°44'9 8.8
2016-Dec-03 12:33N 35°15' E 139°47'1212.0
2016-Dec-03 11:33N 35°03' E 139°45'6 0.2
2016-Dec-02 01:33N 35°09' E 139°45'1211.4
2016-Dec-02 00:32N 35°21' E 139°42'1010.2
2016-Dec-01 23:32N 35°30' E 139°47'3 3.3
2016-Dec-01 22:33N 35°30' E 139°43'0 0.0
2016-Dec-01 21:33N 35°30' E 139°43'0 0.0
2016-Dec-01 20:33N 35°30' E 139°43'0 0.0
2016-Dec-01 19:33N 35°30' E 139°43'0 0.0
2016-Dec-01 18:33N 35°30' E 139°43'0 0.0
2016-Dec-01 17:33N 35°30' E 139°43'0 0.0
2016-Dec-01 16:33N 35°30' E 139°43'0 0.0
2016-Dec-01 15:33N 35°30' E 139°43'0 0.0
2016-Dec-01 14:33N 35°30' E 139°43'0 0.0
2016-Dec-01 13:33N 35°30' E 139°43'0 0.0
2016-Dec-01 12:33N 35°30' E 139°43'0 0.0
2016-Dec-01 11:33N 35°30' E 139°43'0 0.0
2016-Dec-01 10:33N 35°30' E 139°43'0 0.0
2016-Dec-01 09:33N 35°30' E 139°43'0 0.0
2016-Dec-01 08:33N 35°30' E 139°43'0 0.0
2016-Dec-01 07:33N 35°30' E 139°43'0 0.0
2016-Dec-01 06:33N 35°30' E 139°43'0 0.0
2016-Dec-01 05:33N 35°30' E 139°43'0 0.0
2016-Dec-01 04:33N 35°30' E 139°43'0 0.0
2016-Dec-01 03:33N 35°30' E 139°43'0 0.0
2016-Dec-01 02:33N 35°30' E 139°43'0 0.0
2016-Dec-01 01:33N 35°30' E 139°43'0 0.0
2016-Dec-01 00:33N 35°30' E 139°43'0 0.0
2016-Nov-30 23:33N 35°30' E 139°43'0 0.0
2016-Nov-30 22:33N 35°30' E 139°43'0 0.0
2016-Nov-30 21:33N 35°30' E 139°43'0 0.0
2016-Nov-30 20:33N 35°30' E 139°43'0 0.0
2016-Nov-30 19:33N 35°30' E 139°43'0 0.0
2016-Nov-30 18:33N 35°30' E 139°43'0 0.0
2016-Nov-30 17:33N 35°30' E 139°43'0 0.0
2016-Nov-30 16:33N 35°30' E 139°43'0 0.0
2016-Nov-30 15:33N 35°30' E 139°43'0 0.0
2016-Nov-30 14:33N 35°30' E 139°43'0 0.0
2016-Nov-30 13:33N 35°30' E 139°43'0 0.0
2016-Nov-30 12:33N 35°30' E 139°43'0 0.0
2016-Nov-30 11:33N 35°30' E 139°43'0 0.0
2016-Nov-30 10:33N 35°30' E 139°43'0 0.0
2016-Nov-30 09:33N 35°30' E 139°43'0 0.0
2016-Nov-30 08:33N 35°30' E 139°43'0 0.0
2016-Nov-30 07:33N 35°30' E 139°43'0 0.0
2016-Nov-30 06:33N 35°30' E 139°43'0 0.0
2016-Nov-30 05:33N 35°30' E 139°43'0 0.0
2016-Nov-30 04:33N 35°30' E 139°43'1 1.3
2016-Nov-30 03:33N 35°29' E 139°42'6 6.0
2016-Nov-30 02:33N 35°23' E 139°43'0 0.0
2016-Nov-30 01:33N 35°23' E 139°43'0 0.0
2016-Nov-30 00:33N 35°23' E 139°43'0 0.0
2016-Nov-29 23:32N 35°23' E 139°43'0 0.0
2016-Nov-29 22:33N 35°23' E 139°43'0 0.0
2016-Nov-29 21:33N 35°23' E 139°43'9 9.0
2016-Nov-29 20:32N 35°14' E 139°47'7 0.2
2016-Nov-28 08:33N 35°08' E 139°45'1110.9
2016-Nov-28 07:33N 35°19' E 139°44'1010.3
2016-Nov-28 06:33N 35°29' E 139°47'4 3.8
2016-Nov-28 05:33N 35°30' E 139°43'0 0.0
2016-Nov-28 04:33N 35°30' E 139°43'  

Dump ship's entire track history